createdAt,value
2023-04-23T00:01:26.182Z,45.28
2023-04-23T00:03:57.915Z,45.14
2023-04-23T00:06:26.235Z,45.78
2023-04-23T00:08:53.522Z,46.28
2023-04-23T00:11:21.234Z,46.79
2023-04-23T00:13:48.899Z,47.07
2023-04-23T00:16:15.827Z,47.23
2023-04-23T00:18:42.748Z,47.68
2023-04-23T00:21:10.091Z,47.98
2023-04-23T00:23:37.927Z,48.43
2023-04-23T00:26:04.987Z,49.07
2023-04-23T00:28:31.766Z,49.29
2023-04-23T00:30:58.555Z,48.87
2023-04-23T00:33:26.264Z,48.76
2023-04-23T00:35:52.973Z,48.97
2023-04-23T00:38:20.714Z,49.01
2023-04-23T00:40:47.431Z,49.62
2023-04-23T00:43:15.100Z,50.08
2023-04-23T00:45:41.903Z,50.47
2023-04-23T00:48:08.636Z,50.80
2023-04-23T00:50:35.402Z,51.04
2023-04-23T00:53:02.436Z,51.27
2023-04-23T00:55:29.407Z,51.62
2023-04-23T00:57:56.111Z,51.69
2023-04-23T01:00:22.851Z,51.46
2023-04-23T01:02:50.021Z,51.41
2023-04-23T01:05:17.261Z,51.51
2023-04-23T01:07:44.865Z,51.68
2023-04-23T01:10:11.697Z,51.93
2023-04-23T01:12:38.894Z,52.13
2023-04-23T01:15:08.107Z,52.20
2023-04-23T01:17:34.927Z,52.47
2023-04-23T01:20:01.692Z,52.75
2023-04-23T01:22:28.856Z,52.89
2023-04-23T01:24:55.700Z,52.96
2023-04-23T01:27:24.282Z,52.87
2023-04-23T01:29:50.914Z,52.86
2023-04-23T01:32:18.253Z,52.79
2023-04-23T01:34:46.235Z,52.97
2023-04-23T01:37:13.031Z,53.11
2023-04-23T01:39:39.870Z,53.23
2023-04-23T01:42:06.752Z,53.17
2023-04-23T01:44:33.518Z,53.05
2023-04-23T01:47:00.266Z,53.13
2023-04-23T01:49:27.131Z,53.31
2023-04-23T01:51:53.854Z,53.50
2023-04-23T01:54:20.691Z,53.63
2023-04-23T01:56:54.059Z,53.68
2023-04-23T01:59:22.199Z,53.67
2023-04-23T02:01:49.075Z,53.53
2023-04-23T02:04:17.153Z,53.34
2023-04-23T02:06:46.419Z,53.49
2023-04-23T02:09:13.195Z,53.78
2023-04-23T02:11:40.044Z,54.04
2023-04-23T02:14:07.086Z,53.94
2023-04-23T02:16:34.574Z,54.15
2023-04-23T02:19:01.287Z,54.15
2023-04-23T02:21:27.978Z,54.20
2023-04-23T02:23:54.781Z,54.21
2023-04-23T02:26:22.227Z,54.30
2023-04-23T02:28:48.973Z,54.49
2023-04-23T02:31:16.030Z,54.77
2023-04-23T02:33:43.779Z,54.72
2023-04-23T02:36:11.764Z,54.77
2023-04-23T02:38:41.708Z,54.65
2023-04-23T02:41:08.648Z,54.60
2023-04-23T02:43:35.918Z,54.46
2023-04-23T02:46:07.748Z,54.51
2023-04-23T02:48:41.934Z,54.37
2023-04-23T02:51:09.795Z,54.54
2023-04-23T02:53:36.584Z,54.76
2023-04-23T02:56:03.474Z,55.00
2023-04-23T02:58:30.707Z,55.31
2023-04-23T03:00:58.721Z,55.44
2023-04-23T03:03:31.105Z,55.68
2023-04-23T03:05:58.542Z,55.89
2023-04-23T03:08:25.170Z,55.94
2023-04-23T03:10:51.820Z,55.86
2023-04-23T03:13:18.623Z,55.83
2023-04-23T03:15:45.291Z,55.80
2023-04-23T03:18:12.058Z,55.99
2023-04-23T03:20:38.957Z,55.98
2023-04-23T03:23:08.630Z,55.90
2023-04-23T03:25:35.581Z,56.01
2023-04-23T03:28:02.490Z,56.06
2023-04-23T03:30:29.742Z,56.04
2023-04-23T03:32:56.922Z,55.97
2023-04-23T03:35:24.334Z,55.75
2023-04-23T03:37:51.854Z,55.86
2023-04-23T03:40:19.277Z,55.82
2023-04-23T03:42:47.591Z,55.69
2023-04-23T03:45:16.087Z,55.71
2023-04-23T03:47:43.317Z,55.60
2023-04-23T03:50:12.241Z,55.44
2023-04-23T03:52:39.649Z,55.32
2023-04-23T03:55:08.052Z,55.36
2023-04-23T03:57:42.179Z,55.35
2023-04-23T04:00:18.715Z,55.34
2023-04-23T04:02:45.845Z,55.28
2023-04-23T04:05:13.236Z,55.35
2023-04-23T04:07:40.695Z,55.15
2023-04-23T04:10:07.648Z,54.61
2023-04-23T04:12:35.877Z,54.17
2023-04-23T04:15:03.426Z,54.23
2023-04-23T04:17:30.679Z,54.24
2023-04-23T04:19:57.367Z,54.04
2023-04-23T04:22:24.168Z,53.90
2023-04-23T04:24:52.048Z,53.73
2023-04-23T04:27:18.743Z,53.38
2023-04-23T04:29:45.613Z,53.17
2023-04-23T04:32:12.994Z,52.89
2023-04-23T04:34:40.012Z,52.57
2023-04-23T04:37:07.125Z,52.50
2023-04-23T04:39:34.297Z,52.44
2023-04-23T04:42:02.354Z,52.56
2023-04-23T04:44:30.092Z,52.62
2023-04-23T04:46:56.967Z,52.15
2023-04-23T04:49:23.671Z,51.89
2023-04-23T04:51:50.753Z,51.72
2023-04-23T04:54:17.524Z,51.59
2023-04-23T04:56:44.203Z,51.69
2023-04-23T04:59:11.125Z,51.74
2023-04-23T05:01:37.885Z,51.88
2023-04-23T05:04:05.088Z,52.00
2023-04-23T05:06:32.532Z,52.08
2023-04-23T05:08:59.413Z,51.97
2023-04-23T05:11:26.002Z,51.62
2023-04-23T05:13:52.706Z,51.55
2023-04-23T05:16:19.483Z,51.58
2023-04-23T05:18:46.182Z,51.75
2023-04-23T05:21:14.949Z,51.59
2023-04-23T05:23:41.602Z,51.36
2023-04-23T05:26:08.284Z,51.24
2023-04-23T05:28:35.507Z,51.09
2023-04-23T05:31:02.653Z,51.16
2023-04-23T05:33:33.546Z,51.21
2023-04-23T05:36:07.652Z,51.34
2023-04-23T05:38:34.382Z,51.32
2023-04-23T05:41:01.209Z,51.12
2023-04-23T05:43:27.908Z,51.03
2023-04-23T05:45:54.738Z,50.87
2023-04-23T05:48:21.406Z,50.36
2023-04-23T05:50:49.050Z,50.05
2023-04-23T05:53:15.761Z,49.90
2023-04-23T05:55:42.529Z,49.95
2023-04-23T05:58:09.218Z,49.68
2023-04-23T06:00:36.837Z,49.37
2023-04-23T06:03:03.873Z,49.03
2023-04-23T06:05:31.452Z,48.82
2023-04-23T06:07:58.251Z,48.71
2023-04-23T06:10:24.810Z,48.51
2023-04-23T06:12:53.567Z,48.41
2023-04-23T06:15:20.362Z,48.23
2023-04-23T06:17:47.147Z,47.83
2023-04-23T06:20:13.933Z,47.61
2023-04-23T06:22:40.715Z,47.64
2023-04-23T06:25:07.938Z,47.31
2023-04-23T06:27:34.835Z,46.98
2023-04-23T06:30:06.770Z,46.86
2023-04-23T06:32:34.021Z,46.80
2023-04-23T06:35:02.300Z,46.74
2023-04-23T06:37:31.080Z,46.65
2023-04-23T06:39:58.821Z,45.83
2023-04-23T06:42:25.549Z,45.33
2023-04-23T06:45:19.268Z,45.02
2023-04-23T06:47:46.178Z,44.69
2023-04-23T06:50:12.845Z,44.86
2023-04-23T06:52:40.434Z,44.91
2023-04-23T06:55:07.909Z,45.10
2023-04-23T06:57:35.690Z,45.26
2023-04-23T07:00:03.048Z,45.23
2023-04-23T07:02:34.346Z,44.87
2023-04-23T07:05:01.013Z,44.50
2023-04-23T07:07:28.170Z,44.55
2023-04-23T07:09:54.986Z,44.54
2023-04-23T07:12:21.596Z,44.53
2023-04-23T07:14:48.286Z,44.45
2023-04-23T07:17:15.111Z,43.70
2023-04-23T07:19:41.794Z,43.32
2023-04-23T07:22:08.452Z,43.79
2023-04-23T07:24:35.187Z,43.66
2023-04-23T07:27:02.211Z,43.65
2023-04-23T07:29:28.971Z,43.74
2023-04-23T07:31:56.023Z,43.63
2023-04-23T07:34:22.967Z,43.31
2023-04-23T07:36:49.910Z,43.50
2023-04-23T07:39:16.756Z,43.32
2023-04-23T07:41:43.532Z,43.09
2023-04-23T07:44:10.355Z,43.42
2023-04-23T07:46:37.010Z,43.42
2023-04-23T07:49:04.098Z,43.30
2023-04-23T07:51:31.392Z,43.28
2023-04-23T07:53:58.402Z,43.52
2023-04-23T07:56:25.243Z,43.61
2023-04-23T07:58:53.362Z,43.54
2023-04-23T08:01:21.187Z,43.38
2023-04-23T08:03:48.110Z,42.83
2023-04-23T08:06:14.990Z,42.38
2023-04-23T08:08:41.909Z,42.18
2023-04-23T08:11:08.702Z,42.07
2023-04-23T08:13:35.542Z,41.77
2023-04-23T08:16:02.362Z,41.50
2023-04-23T08:18:29.206Z,41.54
2023-04-23T08:20:56.883Z,41.36
2023-04-23T08:23:23.908Z,41.39
2023-04-23T08:25:50.741Z,41.14
2023-04-23T08:28:18.662Z,40.37
2023-04-23T08:30:45.970Z,40.03
2023-04-23T08:33:13.229Z,39.91
2023-04-23T08:35:39.945Z,39.82
2023-04-23T08:38:06.597Z,39.58
2023-04-23T08:40:35.838Z,39.60
2023-04-23T08:43:04.385Z,39.39
2023-04-23T08:45:31.096Z,39.08
2023-04-23T08:48:01.600Z,38.49
2023-04-23T08:50:29.116Z,38.14
2023-04-23T08:52:57.196Z,37.67
2023-04-23T08:55:23.963Z,37.62
2023-04-23T08:57:51.021Z,36.87
2023-04-23T09:00:19.117Z,36.87
2023-04-23T09:02:46.947Z,37.18
2023-04-23T09:05:14.001Z,37.50
2023-04-23T09:07:41.232Z,37.47
2023-04-23T09:10:08.981Z,36.87
2023-04-23T09:12:35.797Z,36.04
2023-04-23T09:15:09.869Z,36.30
2023-04-23T09:17:44.545Z,35.86
2023-04-23T09:20:12.177Z,35.42
2023-04-23T09:22:50.157Z,35.19
2023-04-23T09:25:18.360Z,34.90
2023-04-23T09:27:54.925Z,33.51
2023-04-23T09:30:22.831Z,31.81
2023-04-23T09:32:49.877Z,31.09
2023-04-23T09:35:17.044Z,30.39
2023-04-23T09:37:48.125Z,29.84
2023-04-23T09:40:19.491Z,29.78
2023-04-23T09:42:50.400Z,29.84
2023-04-23T09:45:17.065Z,29.73
2023-04-23T09:47:50.962Z,28.86
2023-04-23T09:50:18.561Z,29.29
2023-04-23T09:52:45.455Z,29.13
2023-04-23T09:55:12.274Z,29.20
2023-04-23T09:57:43.059Z,29.03
2023-04-23T10:00:18.380Z,29.01
2023-04-23T10:02:49.115Z,29.23
2023-04-23T10:05:24.498Z,28.92
2023-04-23T10:07:55.829Z,28.48
2023-04-23T10:10:22.793Z,28.23
2023-04-23T10:12:54.849Z,27.39
2023-04-23T10:15:26.241Z,26.79
2023-04-23T10:17:54.194Z,27.02
2023-04-23T10:20:24.010Z,27.54
2023-04-23T10:22:50.970Z,27.18
2023-04-23T10:25:17.927Z,27.32
2023-04-23T10:27:53.981Z,26.91
2023-04-23T10:30:21.870Z,26.47
2023-04-23T10:32:49.169Z,26.41
2023-04-23T10:35:16.133Z,26.01
2023-04-23T10:37:42.824Z,25.74
2023-04-23T10:40:13.648Z,25.61
2023-04-23T10:42:40.757Z,25.41
2023-04-23T10:47:47.183Z,25.51
2023-04-23T10:50:57.582Z,25.38
2023-04-23T10:53:27.598Z,25.51
2023-04-23T10:56:07.083Z,25.32
2023-04-23T10:58:50.649Z,25.78
2023-04-23T11:01:18.089Z,25.58
2023-04-23T11:03:45.379Z,25.63
2023-04-23T11:06:14.973Z,25.24
2023-04-23T11:08:55.905Z,24.79
2023-04-23T11:11:41.971Z,23.54
2023-04-23T11:14:14.681Z,24.53
2023-04-23T11:16:41.379Z,25.36
2023-04-23T11:32:36.593Z,23.99
2023-04-23T11:35:04.801Z,22.99
2023-04-23T11:37:31.738Z,23.03
2023-04-23T11:39:58.726Z,22.49
2023-04-23T11:42:25.425Z,21.88
2023-04-23T11:44:52.218Z,22.75
2023-04-23T11:47:18.977Z,21.99
2023-04-23T11:49:45.986Z,21.76
2023-04-23T11:52:13.814Z,22.67
2023-04-23T11:54:41.507Z,23.12
2023-04-23T11:57:08.318Z,22.23
2023-04-23T11:59:35.304Z,22.28
2023-04-23T12:02:02.202Z,22.20
2023-04-23T12:04:30.007Z,20.95
2023-04-23T12:06:57.442Z,21.16
2023-04-23T12:09:26.411Z,20.84
2023-04-23T12:11:53.269Z,21.32
2023-04-23T12:14:23.395Z,21.97
2023-04-23T12:16:52.960Z,22.12
2023-04-23T12:19:30.452Z,21.93
2023-04-23T12:22:01.637Z,21.98
2023-04-23T12:24:45.321Z,22.39
2023-04-23T12:27:15.050Z,21.98
2023-04-23T12:29:41.913Z,22.35
2023-04-23T12:32:10.251Z,22.24
2023-04-23T12:34:37.778Z,21.92
2023-04-23T12:37:05.914Z,21.56
2023-04-23T12:39:33.806Z,21.04
2023-04-23T12:42:09.158Z,20.79
2023-04-23T12:44:36.605Z,20.42
2023-04-23T12:47:07.400Z,20.48
2023-04-23T12:49:35.307Z,20.51
2023-04-23T12:52:03.170Z,20.58
2023-04-23T12:54:31.380Z,20.23
2023-04-23T12:57:02.136Z,20.11
2023-04-23T12:59:29.431Z,20.95
2023-04-23T13:01:56.309Z,21.10
2023-04-23T13:04:23.094Z,21.58
2023-04-23T13:06:50.789Z,22.10
2023-04-23T13:09:17.562Z,22.11
2023-04-23T13:11:46.415Z,22.30
2023-04-23T13:14:13.196Z,22.15
2023-04-23T13:16:40.332Z,21.72
2023-04-23T13:19:07.522Z,22.53
2023-04-23T13:21:34.549Z,23.12
2023-04-23T13:24:01.670Z,23.03
2023-04-23T13:26:31.406Z,23.10
2023-04-23T13:28:58.967Z,23.00
2023-04-23T13:31:25.788Z,22.78
2023-04-23T13:33:52.690Z,23.15
2023-04-23T13:36:19.365Z,23.87
2023-04-23T13:38:46.352Z,23.63
2023-04-23T13:41:13.242Z,23.98
2023-04-23T13:43:39.997Z,23.63
2023-04-23T13:46:06.726Z,23.60
2023-04-23T13:48:33.848Z,24.34
2023-04-23T13:51:00.849Z,24.20
2023-04-23T13:53:27.780Z,24.83
2023-04-23T13:55:55.373Z,24.74
2023-04-23T13:58:22.876Z,23.84
2023-04-23T14:00:49.619Z,23.29
2023-04-23T14:03:16.657Z,23.07
2023-04-23T14:05:43.673Z,23.23
2023-04-23T14:08:10.595Z,23.14
2023-04-23T14:10:37.293Z,23.25
2023-04-23T14:13:04.227Z,23.47
2023-04-23T14:15:31.047Z,23.44
2023-04-23T14:17:59.081Z,23.65
2023-04-23T14:20:25.882Z,23.32
2023-04-23T14:23:01.031Z,22.44
2023-04-23T14:25:40.659Z,20.73
2023-04-23T14:28:27.577Z,18.76
2023-04-23T14:30:54.957Z,17.11
2023-04-23T14:33:21.821Z,15.89
2023-04-23T14:35:48.735Z,14.57
2023-04-23T14:38:15.492Z,14.20
2023-04-23T14:40:42.137Z,13.61
2023-04-23T14:45:41.073Z,12.71
2023-04-23T14:48:07.739Z,12.78
2023-04-23T14:50:35.140Z,12.34
2023-04-23T14:53:06.264Z,12.27
2023-04-23T14:55:33.434Z,12.11
2023-04-23T14:58:00.930Z,11.74
2023-04-23T15:00:27.920Z,11.59
2023-04-23T15:02:54.774Z,11.48
2023-04-23T15:05:21.563Z,11.31
2023-04-23T15:07:48.227Z,11.23
2023-04-23T15:10:14.940Z,11.18
2023-04-23T15:12:52.201Z,10.78
2023-04-23T15:15:48.872Z,10.62
2023-04-23T15:18:16.015Z,10.77
2023-04-23T15:20:42.845Z,10.77
2023-04-23T15:23:09.870Z,10.77
2023-04-23T15:25:36.923Z,10.81
2023-04-23T15:28:03.957Z,10.62
2023-04-23T15:30:30.813Z,10.65
2023-04-23T15:32:57.597Z,11.01
2023-04-23T15:35:24.967Z,11.09
2023-04-23T15:37:51.808Z,11.20
2023-04-23T15:40:18.440Z,11.54
2023-04-23T15:42:45.268Z,11.80
2023-04-23T15:45:12.264Z,11.70
2023-04-23T15:47:39.093Z,11.93
2023-04-23T15:50:06.666Z,12.16
2023-04-23T15:52:33.676Z,12.15
2023-04-23T15:55:00.556Z,12.34
2023-04-23T15:57:27.239Z,12.62
2023-04-23T15:59:55.084Z,12.80
2023-04-23T16:02:22.060Z,12.85
2023-04-23T16:04:50.610Z,13.00
2023-04-23T16:07:17.261Z,13.11
2023-04-23T16:09:44.382Z,13.16
2023-04-23T16:12:12.108Z,13.69
2023-04-23T16:14:39.539Z,14.05
2023-04-23T16:17:06.303Z,14.35
2023-04-23T16:19:33.228Z,14.60
2023-04-23T16:22:00.047Z,14.96
2023-04-23T16:24:26.864Z,15.09
2023-04-23T16:26:53.555Z,15.73
2023-04-23T16:29:22.513Z,15.41
2023-04-23T16:31:50.065Z,15.52
2023-04-23T16:34:16.982Z,16.15
2023-04-23T16:36:43.846Z,16.71
2023-04-23T16:39:10.644Z,17.50
2023-04-23T16:41:37.354Z,18.06
2023-04-23T16:44:04.129Z,18.36
2023-04-23T16:46:31.484Z,19.04
2023-04-23T16:48:58.685Z,20.22
2023-04-23T16:51:26.240Z,20.50
2023-04-23T16:53:52.908Z,21.00
2023-04-23T16:56:20.186Z,21.49
2023-04-23T16:58:46.888Z,22.01
2023-04-23T17:01:14.280Z,22.47
2023-04-23T17:03:41.140Z,22.90
2023-04-23T17:06:27.521Z,23.82
2023-04-23T17:08:54.764Z,25.15
2023-04-23T17:11:22.341Z,24.91
2023-04-23T17:13:49.072Z,25.71
2023-04-23T17:16:15.915Z,26.65
2023-04-23T17:18:42.703Z,26.29
2023-04-23T17:21:09.930Z,26.82
2023-04-23T17:23:36.770Z,26.62
2023-04-23T17:26:03.435Z,26.89
2023-04-23T17:28:30.709Z,27.24
2023-04-23T17:30:57.529Z,27.86
2023-04-23T17:33:24.565Z,28.18
2023-04-23T17:35:51.994Z,28.15
2023-04-23T17:38:20.313Z,28.85
2023-04-23T17:40:47.796Z,29.50
2023-04-23T17:43:14.954Z,29.75
2023-04-23T17:45:41.876Z,30.24
2023-04-23T17:48:08.780Z,30.34
2023-04-23T17:50:35.851Z,30.53
2023-04-23T17:53:03.287Z,30.77
2023-04-23T17:55:32.247Z,31.23
2023-04-23T17:58:05.912Z,31.30
2023-04-23T18:00:38.066Z,31.90
2023-04-23T18:03:05.736Z,32.32
2023-04-23T18:05:33.737Z,32.91
2023-04-23T18:08:00.721Z,33.23
2023-04-23T18:10:28.328Z,33.53
2023-04-23T18:12:55.390Z,33.92
2023-04-23T18:15:22.109Z,34.27
2023-04-23T18:17:49.640Z,34.78
2023-04-23T18:20:16.315Z,35.11
2023-04-23T18:22:43.633Z,35.53
2023-04-23T18:25:11.107Z,35.59
2023-04-23T18:27:38.518Z,35.56
2023-04-23T18:30:07.503Z,35.92
2023-04-23T18:32:38.242Z,36.21
2023-04-23T18:35:07.753Z,36.32
2023-04-23T18:37:42.560Z,36.76
2023-04-23T18:40:10.820Z,37.29
2023-04-23T18:42:37.960Z,37.96
2023-04-23T18:45:05.065Z,38.53
2023-04-23T18:47:57.672Z,38.95
2023-04-23T18:50:27.392Z,39.07
2023-04-23T18:52:54.939Z,39.23
2023-04-23T18:55:21.564Z,39.71
2023-04-23T18:57:48.308Z,39.86
2023-04-23T19:00:15.274Z,40.22
2023-04-23T19:02:42.040Z,40.39
2023-04-23T19:05:09.337Z,40.25
2023-04-23T19:07:39.630Z,40.23
2023-04-23T19:10:07.273Z,40.48
2023-04-23T19:12:34.103Z,41.00
2023-04-23T19:15:00.714Z,41.42
2023-04-23T19:17:27.438Z,41.78
2023-04-23T19:19:54.113Z,42.14
2023-04-23T19:22:24.346Z,42.63
2023-04-23T19:24:51.066Z,42.98
2023-04-23T19:27:17.671Z,43.34
2023-04-23T19:29:45.837Z,43.67
2023-04-23T19:32:12.724Z,44.10
2023-04-23T19:34:39.961Z,44.43
2023-04-23T19:37:06.756Z,44.70
2023-04-23T19:39:34.043Z,45.02
2023-04-23T19:42:01.996Z,45.36
2023-04-23T19:44:28.997Z,45.62
2023-04-23T19:46:55.930Z,45.85
2023-04-23T19:49:22.590Z,46.42
2023-04-23T19:51:53.711Z,47.11
2023-04-23T19:54:21.449Z,47.59
2023-04-23T19:56:49.572Z,47.89
2023-04-23T19:59:20.225Z,48.02
2023-04-23T20:01:47.631Z,48.23
2023-04-23T20:04:14.556Z,48.59
2023-04-23T20:06:41.364Z,48.84
2023-04-23T20:09:17.151Z,49.17
2023-04-23T20:11:44.786Z,49.35
2023-04-23T20:14:14.271Z,49.40
2023-04-23T20:16:41.106Z,49.50
2023-04-23T20:19:10.777Z,49.65
2023-04-23T20:21:38.267Z,49.95
2023-04-23T20:24:11.678Z,50.10
2023-04-23T20:26:39.235Z,50.31
2023-04-23T20:29:06.115Z,50.54
2023-04-23T20:31:33.439Z,50.66
2023-04-23T20:34:00.432Z,50.80
2023-04-23T20:36:32.609Z,50.94
2023-04-23T20:39:00.423Z,51.03
2023-04-23T20:41:30.651Z,51.18
2023-04-23T20:43:57.939Z,51.39
2023-04-23T20:46:25.298Z,51.57
2023-04-23T20:48:54.961Z,51.63
2023-04-23T20:51:22.587Z,51.71
2023-04-23T20:53:50.488Z,51.81
2023-04-23T20:56:17.632Z,51.86
2023-04-23T20:58:44.337Z,52.12
2023-04-23T21:01:11.159Z,52.39
2023-04-23T21:03:38.456Z,52.38
2023-04-23T21:06:06.204Z,52.42
2023-04-23T21:08:33.357Z,52.39
2023-04-23T21:11:00.073Z,52.43
2023-04-23T21:13:26.738Z,52.40
2023-04-23T21:15:53.573Z,52.42
2023-04-23T21:18:20.267Z,52.47
2023-04-23T21:20:46.951Z,52.51
2023-04-23T21:23:13.839Z,52.71
2023-04-23T21:25:40.513Z,52.89
2023-04-23T21:28:07.213Z,52.92
2023-04-23T21:30:50.298Z,52.99
2023-04-23T21:33:18.436Z,53.12
2023-04-23T21:35:45.186Z,53.40
2023-04-23T21:38:11.907Z,53.51
2023-04-23T21:40:38.940Z,53.74
2023-04-23T21:43:06.189Z,54.03
2023-04-23T21:45:33.266Z,54.34
2023-04-23T21:48:00.080Z,54.39
2023-04-23T21:50:27.634Z,54.41
2023-04-23T21:52:57.864Z,54.67
2023-04-23T21:55:25.655Z,54.65
2023-04-23T21:57:52.770Z,54.82
2023-04-23T22:00:20.517Z,54.91
2023-04-23T22:02:47.366Z,55.05
2023-04-23T22:05:21.119Z,55.39
2023-04-23T22:07:48.687Z,55.50
2023-04-23T22:10:16.019Z,55.40
2023-04-23T22:12:42.976Z,55.55
2023-04-23T22:15:12.432Z,55.58
2023-04-23T22:17:39.391Z,55.50
2023-04-23T22:20:07.039Z,55.52
2023-04-23T22:22:34.265Z,55.56
2023-04-23T22:25:01.609Z,55.49
2023-04-23T22:27:28.502Z,55.53
2023-04-23T22:29:55.188Z,55.57
2023-04-23T22:32:21.815Z,55.49
2023-04-23T22:34:48.509Z,55.47
2023-04-23T22:37:15.206Z,55.32
2023-04-23T22:39:42.124Z,55.12
2023-04-23T22:42:09.142Z,55.00
2023-04-23T22:44:37.153Z,55.19
2023-04-23T22:47:04.690Z,55.24
2023-04-23T22:49:32.404Z,55.20
2023-04-23T22:51:59.180Z,55.24
2023-04-23T22:54:26.611Z,55.46
2023-04-23T22:56:53.401Z,55.62
2023-04-23T22:59:20.544Z,55.83
2023-04-23T23:01:47.446Z,55.99
2023-04-23T23:04:14.229Z,55.88
2023-04-23T23:06:42.436Z,55.86
2023-04-23T23:09:09.668Z,55.72
2023-04-23T23:11:36.364Z,55.49
2023-04-23T23:14:03.734Z,55.30
2023-04-23T23:16:30.516Z,55.08
2023-04-23T23:18:57.610Z,55.10
2023-04-23T23:21:24.449Z,55.04
2023-04-23T23:23:51.314Z,55.01
2023-04-23T23:26:18.106Z,55.13
2023-04-23T23:28:44.787Z,55.17
2023-04-23T23:31:11.669Z,55.21
2023-04-23T23:33:39.068Z,55.37
2023-04-23T23:36:08.018Z,55.63
2023-04-23T23:50:08.888Z,56.84
2023-04-23T23:52:35.706Z,56.38
2023-04-23T23:55:02.637Z,56.23
2023-04-23T23:57:29.505Z,56.33
2023-04-23T23:59:57.085Z,56.41
